Aérodrome :
LOGIN :

S'inscrire | Disclaimer

   EN    FR    IT 

 










Légende :    VFR   VFR Marginal   IFR   IFR Intensif   IFR Très Intensif
Visi : 
Plafond : 
>= 8 km
>= 3000ft
5 à 8 km
1000 à 3000 ft
1500m à 5 km
500 à 1000 ft
800 à 1500m
200 à 500 ft
< 800m
< 200 ft
Symboles :   Orages  Brouillard  Fortes neiges  Fortes précipitations  Vent > 20 kt
SIGMETs :   Divers  Orages  Givrage  Turbulence  Onde Orograph.  Cendres Volcan.






- Altitude de l'aérodrome : 1020 ft
- Code IATA : ILZ


LZZI - Žilina

DERNIER METAR :
  • 180430Z VRB02KT 7000 SCT024 BKN033 04/03 Q1021

METARs EXPIRÉS :
  • 180400Z 13002KT 8000 SCT032 04/04 Q1020
  • 180330Z VRB02KT 9999 FEW030 BKN085 04/04 Q1020
  • 180300Z VRB02KT 9999 BKN030 BKN100 04/04 Q1020
  • 180230Z 13002KT 9999 -RA OVC033 05/04 Q1020
  • 180200Z 04002KT 9999 -RA OVC032 05/04 Q1020

TAF TAF LZZI
Valide du 18 à 03h jusqu'au 18 à 12h UTC


180200Z 1803/1812 VRB02KT 9999 BKN035
TEMPO 1803/1806 6000 -RA FEW015 BKN025



MET'MAP, la Météo Aéronautique d'un coup d'oeil ! - Copyright ORBIFLY Décembre 2007 - Disclaimer

ORBIFLY MET'MAP TEAM :

Programmation & Développement : Alexandra Zaïnal
Sur une idée originale de : Baudouin d'Aumeries
Assistance à la programmation : Marc-Olivier Méhu
Soutien technique & logistique : Manuel Goepfert

Contact : metmap@orbifly.com




SOURCES & CREDITS :

   NOAA